Upstream stations:
Downstream station:
SHEF ID: MRIT2 Lake Meredith
STATION TYPE: RESERVOIR
Flood Pool: Bottom = 2941.30, Top = 2965.00
ELEVATION STORAGE INFLOW RELEASE WIND-DIRWIND-SPEED
ft ac-ft cfs cfs deg mph
Ccp-Rev Ccp-Rev Rev-Regi Rev-Regi Ccp-Rev Ccp-Rev
(US/Central)
05/12 00:00 2883.67 204886 0 0 152.00 12.00
05/12 01:00 2883.66 204818 0 0 168.00 13.00
05/12 02:00 2883.67 204886 0 0 177.00 10.00
05/12 03:00 2883.64 204684 0 0 181.00 12.00
05/12 04:00 2883.64 204684 0 0 181.00 14.00
05/12 05:00 2883.63 204617 0 0 180.00 13.00
05/12 06:00 2883.60 204415 0 0 175.00 13.00
05/12 07:00 2883.66 204818 0 0 182.00 14.00
05/12 08:00 2883.63 204617 0 0 184.00 15.00
05/12 09:00 2883.66 204818 0 0 ---- ----
05/12 10:00 2883.64 204684 0 0 ---- ----
05/12 11:00 2883.64 204684 0 0 ---- ----
05/12 12:00 2883.63 204617 0 0 ---- ----
05/12 13:00 2883.62 204549 0 0 ---- ----
05/12 14:00 2883.63 204617 226 0 ---- ----
05/12 15:00 2883.61 204482 249 0 ---- ----
05/12 16:00 2883.66 204818 271 0 ---- ----
05/12 17:00 2883.71 205155 271 0 ---- ----
05/12 18:00 2883.67 204886 271 0 ---- ----
05/12 19:00 2883.66 204818 45 0 ---- ----
05/12 20:00 2883.66 204818 23 0 ---- ----
05/12 21:00 2883.65 204751 54 0 ---- ----
05/12 22:00 2883.65 204751 54 0 ---- ----
05/12 23:00 2883.66 204818 163 0 ---- ----